sensor_id;sensor_type;location;lat;lon;timestamp;temperature;humidity
55642;DHT22;41509;53.108;6.100;2023-05-10T00:01:24;12.70;99.90
55642;DHT22;41509;53.108;6.100;2023-05-10T00:03:49;12.70;99.90
55642;DHT22;41509;53.108;6.100;2023-05-10T00:06:15;12.70;99.90
55642;DHT22;41509;53.108;6.100;2023-05-10T00:08:44;12.70;99.90
55642;DHT22;41509;53.108;6.100;2023-05-10T00:11:10;12.70;99.90
55642;DHT22;41509;53.108;6.100;2023-05-10T00:13:38;12.70;99.90
55642;DHT22;41509;53.108;6.100;2023-05-10T00:16:04;12.70;99.90
55642;DHT22;41509;53.108;6.100;2023-05-10T00:18:32;12.60;99.90
55642;DHT22;41509;53.108;6.100;2023-05-10T00:20:58;12.70;99.90
55642;DHT22;41509;53.108;6.100;2023-05-10T00:23:26;12.60;99.90
55642;DHT22;41509;53.108;6.100;2023-05-10T00:25:52;12.60;99.90
55642;DHT22;41509;53.108;6.100;2023-05-10T00:28:17;12.60;99.90
55642;DHT22;41509;53.108;6.100;2023-05-10T00:30:45;12.50;99.90
55642;DHT22;41509;53.108;6.100;2023-05-10T00:33:11;12.50;99.90
55642;DHT22;41509;53.108;6.100;2023-05-10T00:35:36;12.50;99.90
55642;DHT22;41509;53.108;6.100;2023-05-10T00:38:03;12.50;99.90
55642;DHT22;41509;53.108;6.100;2023-05-10T00:40:29;12.50;99.90
55642;DHT22;41509;53.108;6.100;2023-05-10T00:42:56;12.50;99.90
55642;DHT22;41509;53.108;6.100;2023-05-10T00:45:22;12.50;99.90
55642;DHT22;41509;53.108;6.100;2023-05-10T00:47:51;12.50;99.90
55642;DHT22;41509;53.108;6.100;2023-05-10T00:50:21;12.50;99.90
55642;DHT22;41509;53.108;6.100;2023-05-10T00:52:47;12.50;99.90
55642;DHT22;41509;53.108;6.100;2023-05-10T00:55:12;12.50;99.90
55642;DHT22;41509;53.108;6.100;2023-05-10T00:57:38;12.50;99.90
55642;DHT22;41509;53.108;6.100;2023-05-10T01:00:05;12.50;99.90
55642;DHT22;41509;53.108;6.100;2023-05-10T01:02:31;12.50;99.90
55642;DHT22;41509;53.108;6.100;2023-05-10T01:04:58;12.50;99.90
55642;DHT22;41509;53.108;6.100;2023-05-10T01:07:26;12.50;99.90
55642;DHT22;41509;53.108;6.100;2023-05-10T01:09:56;12.50;99.90
55642;DHT22;41509;53.108;6.100;2023-05-10T01:12:22;12.50;99.90
55642;DHT22;41509;53.108;6.100;2023-05-10T01:14:48;12.50;99.90
55642;DHT22;41509;53.108;6.100;2023-05-10T01:17:16;12.50;99.90
55642;DHT22;41509;53.108;6.100;2023-05-10T01:19:42;12.50;99.90
55642;DHT22;41509;53.108;6.100;2023-05-10T01:28:13;12.50;99.90
55642;DHT22;41509;53.108;6.100;2023-05-10T01:31:08;12.60;99.90
55642;DHT22;41509;53.108;6.100;2023-05-10T01:34:32;12.50;99.90
55642;DHT22;41509;53.108;6.100;2023-05-10T01:36:50;12.50;99.90
55642;DHT22;41509;53.108;6.100;2023-05-10T01:39:25;12.50;99.90
55642;DHT22;41509;53.108;6.100;2023-05-10T01:42:33;12.50;99.90
55642;DHT22;41509;53.108;6.100;2023-05-10T01:47:42;12.50;99.90
55642;DHT22;41509;53.108;6.100;2023-05-10T01:50:15;12.50;99.90
55642;DHT22;41509;53.108;6.100;2023-05-10T01:52:56;12.50;99.90
55642;DHT22;41509;53.108;6.100;2023-05-10T01:55:25;12.60;99.90
55642;DHT22;41509;53.108;6.100;2023-05-10T01:58:05;12.50;99.90
55642;DHT22;41509;53.108;6.100;2023-05-10T02:00:33;12.50;99.90
55642;DHT22;41509;53.108;6.100;2023-05-10T02:03:04;12.50;99.90
55642;DHT22;41509;53.108;6.100;2023-05-10T02:05:32;12.50;99.90
55642;DHT22;41509;53.108;6.100;2023-05-10T02:07:59;12.50;99.90
55642;DHT22;41509;53.108;6.100;2023-05-10T02:10:28;12.50;99.90
55642;DHT22;41509;53.108;6.100;2023-05-10T02:12:54;12.50;99.90
55642;DHT22;41509;53.108;6.100;2023-05-10T02:15:23;12.50;99.90
55642;DHT22;41509;53.108;6.100;2023-05-10T02:17:50;12.50;99.90
55642;DHT22;41509;53.108;6.100;2023-05-10T02:20:19;12.50;99.90
55642;DHT22;41509;53.108;6.100;2023-05-10T02:22:47;12.50;99.90
55642;DHT22;41509;53.108;6.100;2023-05-10T02:25:15;12.50;99.90
55642;DHT22;41509;53.108;6.100;2023-05-10T02:27:42;12.50;99.90
55642;DHT22;41509;53.108;6.100;2023-05-10T02:30:12;12.50;99.90
55642;DHT22;41509;53.108;6.100;2023-05-10T02:32:38;12.50;99.90
55642;DHT22;41509;53.108;6.100;2023-05-10T02:35:05;12.50;99.90
55642;DHT22;41509;53.108;6.100;2023-05-10T02:37:34;12.50;99.90
55642;DHT22;41509;53.108;6.100;2023-05-10T02:40:00;12.50;99.90
55642;DHT22;41509;53.108;6.100;2023-05-10T02:42:29;12.50;99.90
55642;DHT22;41509;53.108;6.100;2023-05-10T02:45:01;12.50;99.90
55642;DHT22;41509;53.108;6.100;2023-05-10T02:47:28;12.50;99.90
55642;DHT22;41509;53.108;6.100;2023-05-10T02:49:54;12.50;99.90
55642;DHT22;41509;53.108;6.100;2023-05-10T02:52:25;12.50;99.90
55642;DHT22;41509;53.108;6.100;2023-05-10T02:54:55;12.40;99.90
55642;DHT22;41509;53.108;6.100;2023-05-10T02:57:28;12.50;99.90
55642;DHT22;41509;53.108;6.100;2023-05-10T02:59:57;12.50;99.90
55642;DHT22;41509;53.108;6.100;2023-05-10T03:02:23;12.50;99.90
55642;DHT22;41509;53.108;6.100;2023-05-10T03:04:48;12.50;99.90
55642;DHT22;41509;53.108;6.100;2023-05-10T03:07:14;12.50;99.90
55642;DHT22;41509;53.108;6.100;2023-05-10T03:09:41;12.50;99.90
55642;DHT22;41509;53.108;6.100;2023-05-10T03:17:54;12.50;99.90
55642;DHT22;41509;53.108;6.100;2023-05-10T03:20:25;12.50;99.90
55642;DHT22;41509;53.108;6.100;2023-05-10T03:22:55;12.50;99.90
55642;DHT22;41509;53.108;6.100;2023-05-10T03:25:24;12.50;99.90
55642;DHT22;41509;53.108;6.100;2023-05-10T03:27:52;12.50;99.90
55642;DHT22;41509;53.108;6.100;2023-05-10T03:30:21;12.50;99.90
55642;DHT22;41509;53.108;6.100;2023-05-10T03:32:46;12.50;99.90
55642;DHT22;41509;53.108;6.100;2023-05-10T03:35:12;12.50;99.90
55642;DHT22;41509;53.108;6.100;2023-05-10T03:37:39;12.50;99.90
55642;DHT22;41509;53.108;6.100;2023-05-10T03:40:06;12.50;99.90
55642;DHT22;41509;53.108;6.100;2023-05-10T03:42:31;12.50;99.90
55642;DHT22;41509;53.108;6.100;2023-05-10T03:44:57;12.40;99.90
55642;DHT22;41509;53.108;6.100;2023-05-10T03:47:22;12.50;99.90
55642;DHT22;41509;53.108;6.100;2023-05-10T03:49:48;12.50;99.90
55642;DHT22;41509;53.108;6.100;2023-05-10T03:52:14;12.50;99.90
55642;DHT22;41509;53.108;6.100;2023-05-10T03:54:40;12.50;99.90
55642;DHT22;41509;53.108;6.100;2023-05-10T03:57:05;12.50;99.90
55642;DHT22;41509;53.108;6.100;2023-05-10T03:59:31;12.50;99.90
55642;DHT22;41509;53.108;6.100;2023-05-10T04:01:57;12.40;99.90
55642;DHT22;41509;53.108;6.100;2023-05-10T04:04:22;12.50;99.90
55642;DHT22;41509;53.108;6.100;2023-05-10T04:06:48;12.60;99.90
55642;DHT22;41509;53.108;6.100;2023-05-10T04:09:14;12.40;99.90
55642;DHT22;41509;53.108;6.100;2023-05-10T04:11:40;12.50;99.90
55642;DHT22;41509;53.108;6.100;2023-05-10T04:14:06;12.40;99.90
55642;DHT22;41509;53.108;6.100;2023-05-10T04:16:31;12.40;99.90
55642;DHT22;41509;53.108;6.100;2023-05-10T04:18:57;12.40;99.90
55642;DHT22;41509;53.108;6.100;2023-05-10T04:21:22;12.40;99.90
55642;DHT22;41509;53.108;6.100;2023-05-10T04:23:51;12.40;99.90
55642;DHT22;41509;53.108;6.100;2023-05-10T04:26:19;12.40;99.90
55642;DHT22;41509;53.108;6.100;2023-05-10T04:28:45;12.30;99.90
55642;DHT22;41509;53.108;6.100;2023-05-10T04:31:11;12.40;99.90
55642;DHT22;41509;53.108;6.100;2023-05-10T04:33:37;12.30;99.90
55642;DHT22;41509;53.108;6.100;2023-05-10T04:36:03;12.30;99.90
55642;DHT22;41509;53.108;6.100;2023-05-10T04:38:29;12.30;99.90
55642;DHT22;41509;53.108;6.100;2023-05-10T04:41:04;12.30;99.90
55642;DHT22;41509;53.108;6.100;2023-05-10T04:43:30;12.30;99.90
55642;DHT22;41509;53.108;6.100;2023-05-10T04:45:59;12.30;99.90
55642;DHT22;41509;53.108;6.100;2023-05-10T04:48:24;12.30;99.90
55642;DHT22;41509;53.108;6.100;2023-05-10T04:50:50;12.30;99.90
55642;DHT22;41509;53.108;6.100;2023-05-10T04:53:15;12.30;99.90
55642;DHT22;41509;53.108;6.100;2023-05-10T04:55:41;12.20;99.90
55642;DHT22;41509;53.108;6.100;2023-05-10T04:58:10;12.20;99.90
55642;DHT22;41509;53.108;6.100;2023-05-10T05:00:38;12.20;99.90
55642;DHT22;41509;53.108;6.100;2023-05-10T05:03:04;12.20;99.90
55642;DHT22;41509;53.108;6.100;2023-05-10T05:05:33;12.20;99.90
55642;DHT22;41509;53.108;6.100;2023-05-10T05:07:58;12.20;99.90
55642;DHT22;41509;53.108;6.100;2023-05-10T05:10:24;12.20;99.90
55642;DHT22;41509;53.108;6.100;2023-05-10T05:12:50;12.20;99.90
55642;DHT22;41509;53.108;6.100;2023-05-10T05:15:15;12.20;99.90
55642;DHT22;41509;53.108;6.100;2023-05-10T05:17:44;12.20;99.90
55642;DHT22;41509;53.108;6.100;2023-05-10T05:20:12;12.20;99.90
55642;DHT22;41509;53.108;6.100;2023-05-10T05:22:38;12.20;99.90
55642;DHT22;41509;53.108;6.100;2023-05-10T05:25:04;12.20;99.90
55642;DHT22;41509;53.108;6.100;2023-05-10T05:27:33;12.20;99.90
55642;DHT22;41509;53.108;6.100;2023-05-10T05:29:59;12.20;99.90
55642;DHT22;41509;53.108;6.100;2023-05-10T05:32:25;12.20;99.90
55642;DHT22;41509;53.108;6.100;2023-05-10T05:34:51;12.20;99.90
55642;DHT22;41509;53.108;6.100;2023-05-10T05:37:18;12.20;99.90
55642;DHT22;41509;53.108;6.100;2023-05-10T05:39:47;12.20;99.90
55642;DHT22;41509;53.108;6.100;2023-05-10T05:42:13;12.20;99.90
55642;DHT22;41509;53.108;6.100;2023-05-10T05:44:39;12.20;99.90
55642;DHT22;41509;53.108;6.100;2023-05-10T05:47:05;12.20;99.90
55642;DHT22;41509;53.108;6.100;2023-05-10T05:49:31;12.20;99.90
55642;DHT22;41509;53.108;6.100;2023-05-10T05:52:03;12.20;99.90
55642;DHT22;41509;53.108;6.100;2023-05-10T05:54:30;12.20;99.90
55642;DHT22;41509;53.108;6.100;2023-05-10T05:57:00;12.20;99.90
55642;DHT22;41509;53.108;6.100;2023-05-10T05:59:26;12.20;99.90
55642;DHT22;41509;53.108;6.100;2023-05-10T06:01:52;12.20;99.90
55642;DHT22;41509;53.108;6.100;2023-05-10T06:04:18;12.20;99.90
55642;DHT22;41509;53.108;6.100;2023-05-10T06:06:44;12.20;99.90
55642;DHT22;41509;53.108;6.100;2023-05-10T06:09:10;12.20;99.90
55642;DHT22;41509;53.108;6.100;2023-05-10T06:11:36;12.20;99.90
55642;DHT22;41509;53.108;6.100;2023-05-10T06:14:02;12.30;99.90
55642;DHT22;41509;53.108;6.100;2023-05-10T06:16:30;12.20;99.90
55642;DHT22;41509;53.108;6.100;2023-05-10T06:18:55;12.20;99.90
55642;DHT22;41509;53.108;6.100;2023-05-10T06:21:22;12.30;99.90
55642;DHT22;41509;53.108;6.100;2023-05-10T06:23:47;12.30;99.90
55642;DHT22;41509;53.108;6.100;2023-05-10T06:26:13;12.30;99.90
55642;DHT22;41509;53.108;6.100;2023-05-10T06:28:39;12.30;99.90
55642;DHT22;41509;53.108;6.100;2023-05-10T06:33:33;12.30;99.90
55642;DHT22;41509;53.108;6.100;2023-05-10T06:35:59;12.30;99.90
55642;DHT22;41509;53.108;6.100;2023-05-10T06:38:24;12.30;99.90
55642;DHT22;41509;53.108;6.100;2023-05-10T06:40:50;12.40;99.90
55642;DHT22;41509;53.108;6.100;2023-05-10T06:43:16;12.30;99.90
55642;DHT22;41509;53.108;6.100;2023-05-10T06:45:42;12.30;99.90
55642;DHT22;41509;53.108;6.100;2023-05-10T06:48:08;12.50;99.90
55642;DHT22;41509;53.108;6.100;2023-05-10T06:50:33;12.40;99.90
55642;DHT22;41509;53.108;6.100;2023-05-10T06:53:00;12.40;99.90
55642;DHT22;41509;53.108;6.100;2023-05-10T06:55:27;12.50;99.90
55642;DHT22;41509;53.108;6.100;2023-05-10T06:57:55;12.50;99.90
55642;DHT22;41509;53.108;6.100;2023-05-10T07:00:21;12.60;99.90
55642;DHT22;41509;53.108;6.100;2023-05-10T07:02:47;12.60;99.90
55642;DHT22;41509;53.108;6.100;2023-05-10T07:05:13;12.60;99.90
55642;DHT22;41509;53.108;6.100;2023-05-10T07:07:39;12.70;99.90
55642;DHT22;41509;53.108;6.100;2023-05-10T07:10:05;12.80;99.90
55642;DHT22;41509;53.108;6.100;2023-05-10T07:12:31;12.80;99.90
55642;DHT22;41509;53.108;6.100;2023-05-10T07:14:56;12.70;99.90
55642;DHT22;41509;53.108;6.100;2023-05-10T07:17:22;12.70;99.90
55642;DHT22;41509;53.108;6.100;2023-05-10T07:19:48;12.70;99.90
55642;DHT22;41509;53.108;6.100;2023-05-10T07:22:14;12.70;99.90
55642;DHT22;41509;53.108;6.100;2023-05-10T07:24:40;12.70;99.90
55642;DHT22;41509;53.108;6.100;2023-05-10T07:27:05;12.80;99.90
55642;DHT22;41509;53.108;6.100;2023-05-10T07:29:31;12.80;99.90
55642;DHT22;41509;53.108;6.100;2023-05-10T07:31:57;12.90;99.90
55642;DHT22;41509;53.108;6.100;2023-05-10T07:34:23;12.90;99.90
55642;DHT22;41509;53.108;6.100;2023-05-10T07:36:48;12.80;99.90
55642;DHT22;41509;53.108;6.100;2023-05-10T07:39:14;12.70;99.90
55642;DHT22;41509;53.108;6.100;2023-05-10T07:41:39;12.80;99.90
55642;DHT22;41509;53.108;6.100;2023-05-10T07:44:06;12.80;99.90
55642;DHT22;41509;53.108;6.100;2023-05-10T07:46:31;12.80;99.90
55642;DHT22;41509;53.108;6.100;2023-05-10T07:48:57;12.70;99.90
55642;DHT22;41509;53.108;6.100;2023-05-10T07:51:22;12.70;99.90
55642;DHT22;41509;53.108;6.100;2023-05-10T07:53:48;12.80;99.90
55642;DHT22;41509;53.108;6.100;2023-05-10T07:56:40;12.70;99.90
55642;DHT22;41509;53.108;6.100;2023-05-10T07:59:14;12.70;99.90
55642;DHT22;41509;53.108;6.100;2023-05-10T08:01:41;12.70;99.90
55642;DHT22;41509;53.108;6.100;2023-05-10T08:04:07;12.60;99.90
55642;DHT22;41509;53.108;6.100;2023-05-10T08:06:34;12.70;99.90
55642;DHT22;41509;53.108;6.100;2023-05-10T08:09:00;12.70;99.90
55642;DHT22;41509;53.108;6.100;2023-05-10T08:11:25;12.70;99.90
55642;DHT22;41509;53.108;6.100;2023-05-10T08:13:53;12.70;99.90
55642;DHT22;41509;53.108;6.100;2023-05-10T08:16:19;12.70;99.90
55642;DHT22;41509;53.108;6.100;2023-05-10T08:18:46;12.70;99.90
55642;DHT22;41509;53.108;6.100;2023-05-10T08:21:12;12.70;99.90
55642;DHT22;41509;53.108;6.100;2023-05-10T08:23:39;12.70;99.90
55642;DHT22;41509;53.108;6.100;2023-05-10T08:26:04;12.70;99.90
55642;DHT22;41509;53.108;6.100;2023-05-10T08:28:30;12.70;99.90
55642;DHT22;41509;53.108;6.100;2023-05-10T08:30:56;12.70;99.90
55642;DHT22;41509;53.108;6.100;2023-05-10T08:33:22;12.80;99.90
55642;DHT22;41509;53.108;6.100;2023-05-10T08:35:47;12.80;99.90
55642;DHT22;41509;53.108;6.100;2023-05-10T08:38:13;12.80;99.90
55642;DHT22;41509;53.108;6.100;2023-05-10T08:40:41;12.80;99.90
55642;DHT22;41509;53.108;6.100;2023-05-10T08:43:10;12.80;99.90
55642;DHT22;41509;53.108;6.100;2023-05-10T08:45:41;12.80;99.90
55642;DHT22;41509;53.108;6.100;2023-05-10T08:48:10;12.90;99.90
55642;DHT22;41509;53.108;6.100;2023-05-10T08:50:41;12.90;99.90
55642;DHT22;41509;53.108;6.100;2023-05-10T08:53:10;13.00;99.90
55642;DHT22;41509;53.108;6.100;2023-05-10T08:55:37;13.00;99.90
55642;DHT22;41509;53.108;6.100;2023-05-10T08:58:04;13.10;99.90
55642;DHT22;41509;53.108;6.100;2023-05-10T09:00:31;13.20;99.90
55642;DHT22;41509;53.108;6.100;2023-05-10T09:03:00;13.20;99.90
55642;DHT22;41509;53.108;6.100;2023-05-10T09:05:27;13.30;99.90
55642;DHT22;41509;53.108;6.100;2023-05-10T09:07:53;13.40;99.90
55642;DHT22;41509;53.108;6.100;2023-05-10T09:10:19;13.40;99.90
55642;DHT22;41509;53.108;6.100;2023-05-10T09:12:45;13.40;99.90
55642;DHT22;41509;53.108;6.100;2023-05-10T09:15:12;13.50;99.90
55642;DHT22;41509;53.108;6.100;2023-05-10T09:17:40;13.50;99.90
55642;DHT22;41509;53.108;6.100;2023-05-10T09:20:07;13.60;99.90
55642;DHT22;41509;53.108;6.100;2023-05-10T09:22:33;13.50;99.90
55642;DHT22;41509;53.108;6.100;2023-05-10T09:27:39;13.60;99.90
55642;DHT22;41509;53.108;6.100;2023-05-10T09:30:05;13.60;99.90
55642;DHT22;41509;53.108;6.100;2023-05-10T09:32:42;13.60;99.90
55642;DHT22;41509;53.108;6.100;2023-05-10T09:35:16;13.70;99.90
55642;DHT22;41509;53.108;6.100;2023-05-10T09:37:44;13.70;99.90
55642;DHT22;41509;53.108;6.100;2023-05-10T09:42:57;13.70;99.90
55642;DHT22;41509;53.108;6.100;2023-05-10T09:45:24;13.80;99.90
55642;DHT22;41509;53.108;6.100;2023-05-10T09:47:51;13.90;99.90
55642;DHT22;41509;53.108;6.100;2023-05-10T09:50:16;13.80;99.90
55642;DHT22;41509;53.108;6.100;2023-05-10T09:52:47;13.80;99.90
55642;DHT22;41509;53.108;6.100;2023-05-10T09:55:13;13.90;99.90
55642;DHT22;41509;53.108;6.100;2023-05-10T09:57:39;13.90;99.90
55642;DHT22;41509;53.108;6.100;2023-05-10T10:00:05;13.90;99.90
55642;DHT22;41509;53.108;6.100;2023-05-10T10:02:32;13.90;99.90
55642;DHT22;41509;53.108;6.100;2023-05-10T10:04:57;14.00;99.90
55642;DHT22;41509;53.108;6.100;2023-05-10T10:07:24;14.00;99.90
55642;DHT22;41509;53.108;6.100;2023-05-10T10:09:53;14.10;99.90
55642;DHT22;41509;53.108;6.100;2023-05-10T10:12:19;14.20;99.90
55642;DHT22;41509;53.108;6.100;2023-05-10T10:14:46;14.20;99.90
55642;DHT22;41509;53.108;6.100;2023-05-10T10:17:13;14.30;99.90
55642;DHT22;41509;53.108;6.100;2023-05-10T10:19:40;14.30;99.90
55642;DHT22;41509;53.108;6.100;2023-05-10T10:22:06;14.30;99.90
55642;DHT22;41509;53.108;6.100;2023-05-10T10:24:32;14.30;99.90
55642;DHT22;41509;53.108;6.100;2023-05-10T10:27:07;14.30;99.90
55642;DHT22;41509;53.108;6.100;2023-05-10T10:30:04;14.30;99.90
55642;DHT22;41509;53.108;6.100;2023-05-10T10:32:59;14.20;99.90
55642;DHT22;41509;53.108;6.100;2023-05-10T10:35:31;14.20;99.90
55642;DHT22;41509;53.108;6.100;2023-05-10T10:37:57;14.30;99.90
55642;DHT22;41509;53.108;6.100;2023-05-10T10:40:30;14.30;99.90
55642;DHT22;41509;53.108;6.100;2023-05-10T10:42:57;14.30;99.90
55642;DHT22;41509;53.108;6.100;2023-05-10T10:45:24;14.30;99.90
55642;DHT22;41509;53.108;6.100;2023-05-10T10:48:21;14.30;99.90
55642;DHT22;41509;53.108;6.100;2023-05-10T10:50:47;14.30;99.90
55642;DHT22;41509;53.108;6.100;2023-05-10T10:53:21;14.40;99.90
55642;DHT22;41509;53.108;6.100;2023-05-10T10:55:47;14.40;99.90
55642;DHT22;41509;53.108;6.100;2023-05-10T10:58:34;14.50;99.90
55642;DHT22;41509;53.108;6.100;2023-05-10T11:01:14;14.40;99.90
55642;DHT22;41509;53.108;6.100;2023-05-10T11:03:41;14.30;99.90
55642;DHT22;41509;53.108;6.100;2023-05-10T11:06:06;14.40;99.90
55642;DHT22;41509;53.108;6.100;2023-05-10T11:08:40;14.40;99.90
55642;DHT22;41509;53.108;6.100;2023-05-10T11:11:07;14.40;99.90
55642;DHT22;41509;53.108;6.100;2023-05-10T11:13:46;14.40;99.90
55642;DHT22;41509;53.108;6.100;2023-05-10T11:16:23;14.40;99.90
55642;DHT22;41509;53.108;6.100;2023-05-10T11:19:03;14.30;99.90
55642;DHT22;41509;53.108;6.100;2023-05-10T11:21:30;14.30;99.90
55642;DHT22;41509;53.108;6.100;2023-05-10T11:23:57;14.30;99.90
55642;DHT22;41509;53.108;6.100;2023-05-10T11:26:25;14.30;99.90
55642;DHT22;41509;53.108;6.100;2023-05-10T11:28:53;14.30;99.90
55642;DHT22;41509;53.108;6.100;2023-05-10T11:31:21;14.30;99.90
55642;DHT22;41509;53.108;6.100;2023-05-10T11:33:50;14.20;99.90
55642;DHT22;41509;53.108;6.100;2023-05-10T11:36:36;14.20;99.90
55642;DHT22;41509;53.108;6.100;2023-05-10T11:39:03;14.30;99.90
55642;DHT22;41509;53.108;6.100;2023-05-10T11:41:30;14.20;99.90
55642;DHT22;41509;53.108;6.100;2023-05-10T11:43:57;14.30;99.90
55642;DHT22;41509;53.108;6.100;2023-05-10T11:46:25;14.30;99.90
55642;DHT22;41509;53.108;6.100;2023-05-10T11:48:52;14.20;99.90
55642;DHT22;41509;53.108;6.100;2023-05-10T11:51:23;14.20;99.90
55642;DHT22;41509;53.108;6.100;2023-05-10T11:53:50;14.20;99.90
55642;DHT22;41509;53.108;6.100;2023-05-10T11:56:16;14.30;99.90
55642;DHT22;41509;53.108;6.100;2023-05-10T11:58:42;14.30;99.90
55642;DHT22;41509;53.108;6.100;2023-05-10T12:01:08;14.40;99.90
55642;DHT22;41509;53.108;6.100;2023-05-10T12:03:35;14.40;99.90
55642;DHT22;41509;53.108;6.100;2023-05-10T12:06:02;14.50;99.90
55642;DHT22;41509;53.108;6.100;2023-05-10T12:08:29;14.50;99.90
55642;DHT22;41509;53.108;6.100;2023-05-10T12:11:07;14.60;99.90
55642;DHT22;41509;53.108;6.100;2023-05-10T12:13:41;14.50;99.90
55642;DHT22;41509;53.108;6.100;2023-05-10T12:16:17;14.50;99.90
55642;DHT22;41509;53.108;6.100;2023-05-10T12:18:44;14.50;99.90
55642;DHT22;41509;53.108;6.100;2023-05-10T12:21:10;14.40;99.90
55642;DHT22;41509;53.108;6.100;2023-05-10T12:23:37;14.40;99.90
55642;DHT22;41509;53.108;6.100;2023-05-10T12:26:03;14.40;99.90
55642;DHT22;41509;53.108;6.100;2023-05-10T12:28:33;14.40;99.90
55642;DHT22;41509;53.108;6.100;2023-05-10T12:33:26;14.40;99.90
55642;DHT22;41509;53.108;6.100;2023-05-10T12:35:53;14.40;99.90
55642;DHT22;41509;53.108;6.100;2023-05-10T12:40:50;14.50;99.90
55642;DHT22;41509;53.108;6.100;2023-05-10T12:43:16;14.50;99.90
55642;DHT22;41509;53.108;6.100;2023-05-10T12:45:41;14.60;99.90
55642;DHT22;41509;53.108;6.100;2023-05-10T12:48:07;14.70;99.90
55642;DHT22;41509;53.108;6.100;2023-05-10T12:50:33;14.80;99.90
55642;DHT22;41509;53.108;6.100;2023-05-10T12:52:58;14.90;99.90
55642;DHT22;41509;53.108;6.100;2023-05-10T12:55:24;14.90;99.90
55642;DHT22;41509;53.108;6.100;2023-05-10T12:57:50;14.90;99.90
55642;DHT22;41509;53.108;6.100;2023-05-10T13:00:15;15.00;99.90
55642;DHT22;41509;53.108;6.100;2023-05-10T13:02:41;15.00;99.90
55642;DHT22;41509;53.108;6.100;2023-05-10T13:05:07;15.10;99.90
55642;DHT22;41509;53.108;6.100;2023-05-10T13:07:33;15.10;99.90
55642;DHT22;41509;53.108;6.100;2023-05-10T13:09:58;15.20;99.90
55642;DHT22;41509;53.108;6.100;2023-05-10T13:12:24;15.20;99.90
55642;DHT22;41509;53.108;6.100;2023-05-10T13:14:49;15.30;99.90
55642;DHT22;41509;53.108;6.100;2023-05-10T13:17:15;15.40;99.90
55642;DHT22;41509;53.108;6.100;2023-05-10T13:19:40;15.50;99.90
55642;DHT22;41509;53.108;6.100;2023-05-10T13:22:06;15.50;99.90
55642;DHT22;41509;53.108;6.100;2023-05-10T13:24:32;15.50;99.90
55642;DHT22;41509;53.108;6.100;2023-05-10T13:26:58;15.50;99.90
55642;DHT22;41509;53.108;6.100;2023-05-10T13:29:23;15.50;99.90
55642;DHT22;41509;53.108;6.100;2023-05-10T13:31:49;15.60;99.90
55642;DHT22;41509;53.108;6.100;2023-05-10T13:34:14;15.60;99.90
55642;DHT22;41509;53.108;6.100;2023-05-10T13:36:40;15.60;99.90
55642;DHT22;41509;53.108;6.100;2023-05-10T13:39:06;15.60;99.90
55642;DHT22;41509;53.108;6.100;2023-05-10T13:41:32;15.60;99.90
55642;DHT22;41509;53.108;6.100;2023-05-10T13:43:57;15.60;99.90
55642;DHT22;41509;53.108;6.100;2023-05-10T13:46:23;15.60;99.90
55642;DHT22;41509;53.108;6.100;2023-05-10T13:48:48;15.50;99.90
55642;DHT22;41509;53.108;6.100;2023-05-10T13:51:14;15.60;99.90
55642;DHT22;41509;53.108;6.100;2023-05-10T13:53:40;15.60;99.90
55642;DHT22;41509;53.108;6.100;2023-05-10T13:56:05;15.70;99.90
55642;DHT22;41509;53.108;6.100;2023-05-10T13:58:31;15.60;99.90
55642;DHT22;41509;53.108;6.100;2023-05-10T14:00:57;15.70;99.90
55642;DHT22;41509;53.108;6.100;2023-05-10T14:03:23;15.70;99.90
55642;DHT22;41509;53.108;6.100;2023-05-10T14:05:48;15.80;99.90
55642;DHT22;41509;53.108;6.100;2023-05-10T14:08:14;15.80;99.90
55642;DHT22;41509;53.108;6.100;2023-05-10T14:10:40;15.80;99.90
55642;DHT22;41509;53.108;6.100;2023-05-10T14:13:05;15.80;99.90
55642;DHT22;41509;53.108;6.100;2023-05-10T14:15:31;15.80;99.90
55642;DHT22;41509;53.108;6.100;2023-05-10T14:17:57;15.90;99.90
55642;DHT22;41509;53.108;6.100;2023-05-10T14:20:23;15.90;99.90
55642;DHT22;41509;53.108;6.100;2023-05-10T14:22:48;15.90;99.90
55642;DHT22;41509;53.108;6.100;2023-05-10T14:25:14;15.90;99.90
55642;DHT22;41509;53.108;6.100;2023-05-10T14:27:40;16.00;99.90
55642;DHT22;41509;53.108;6.100;2023-05-10T14:30:06;16.00;99.90
55642;DHT22;41509;53.108;6.100;2023-05-10T14:32:32;15.90;99.90
55642;DHT22;41509;53.108;6.100;2023-05-10T14:34:57;15.90;99.90
55642;DHT22;41509;53.108;6.100;2023-05-10T14:37:23;15.90;99.90
55642;DHT22;41509;53.108;6.100;2023-05-10T14:39:48;15.90;99.90
55642;DHT22;41509;53.108;6.100;2023-05-10T14:42:14;16.00;99.90
55642;DHT22;41509;53.108;6.100;2023-05-10T14:44:39;16.00;99.90
55642;DHT22;41509;53.108;6.100;2023-05-10T14:47:05;16.00;99.90
55642;DHT22;41509;53.108;6.100;2023-05-10T14:49:31;16.00;99.90
55642;DHT22;41509;53.108;6.100;2023-05-10T14:51:56;16.00;99.90
55642;DHT22;41509;53.108;6.100;2023-05-10T14:54:22;16.00;99.90
55642;DHT22;41509;53.108;6.100;2023-05-10T14:56:48;16.00;99.90
55642;DHT22;41509;53.108;6.100;2023-05-10T14:59:15;15.90;99.90
55642;DHT22;41509;53.108;6.100;2023-05-10T15:01:40;16.00;99.90
55642;DHT22;41509;53.108;6.100;2023-05-10T15:04:07;15.90;99.90
55642;DHT22;41509;53.108;6.100;2023-05-10T15:06:34;15.90;99.90
55642;DHT22;41509;53.108;6.100;2023-05-10T15:09:00;15.80;99.90
55642;DHT22;41509;53.108;6.100;2023-05-10T15:11:27;15.70;99.90
55642;DHT22;41509;53.108;6.100;2023-05-10T15:13:53;15.60;99.90
55642;DHT22;41509;53.108;6.100;2023-05-10T15:16:18;15.60;99.90
55642;DHT22;41509;53.108;6.100;2023-05-10T15:18:44;15.50;99.90
55642;DHT22;41509;53.108;6.100;2023-05-10T15:21:11;15.60;99.90
55642;DHT22;41509;53.108;6.100;2023-05-10T15:23:36;15.50;99.90
55642;DHT22;41509;53.108;6.100;2023-05-10T15:26:02;15.50;99.90
55642;DHT22;41509;53.108;6.100;2023-05-10T15:28:28;15.50;99.90
55642;DHT22;41509;53.108;6.100;2023-05-10T15:30:54;15.40;99.90
55642;DHT22;41509;53.108;6.100;2023-05-10T15:33:20;15.30;99.90
55642;DHT22;41509;53.108;6.100;2023-05-10T15:35:45;15.30;99.90
55642;DHT22;41509;53.108;6.100;2023-05-10T15:38:11;15.20;99.90
55642;DHT22;41509;53.108;6.100;2023-05-10T15:40:36;15.30;99.90
55642;DHT22;41509;53.108;6.100;2023-05-10T15:43:02;15.30;99.90
55642;DHT22;41509;53.108;6.100;2023-05-10T15:45:28;15.30;99.90
55642;DHT22;41509;53.108;6.100;2023-05-10T15:47:53;15.20;99.90
55642;DHT22;41509;53.108;6.100;2023-05-10T15:50:19;15.30;99.90
55642;DHT22;41509;53.108;6.100;2023-05-10T15:52:45;15.20;99.90
55642;DHT22;41509;53.108;6.100;2023-05-10T15:55:10;15.20;99.90
55642;DHT22;41509;53.108;6.100;2023-05-10T15:57:39;15.20;99.90
55642;DHT22;41509;53.108;6.100;2023-05-10T16:00:07;15.10;99.90